Time,TemperatureF,DewpointF,PressureIn,WindDirection,WindDirectionDegrees,WindSpeedMPH,WindSpeedGustMPH,Humidity,HourlyPrecipIn,Conditions,Clouds,dailyrainin,SoftwareType,DateUTC
2013-03-26 00:13:00,42.4,27.0,30.19,West,270,2.2,-999.0,54,-99.99,,,0.00,Acu-Link.com,2013-03-26 05:13:00,
2013-03-26 00:28:00,41.4,27.3,30.19,North,0,3.8,-999.0,57,-99.99,,,0.00,Acu-Link.com,2013-03-26 05:28:00,
2013-03-26 00:43:00,40.5,28.5,30.20,NNW,337,2.2,-999.0,62,-99.99,,,0.00,Acu-Link.com,2013-03-26 05:43:00,
2013-03-26 00:58:00,40.8,28.0,30.20,NNW,337,2.2,-999.0,60,-99.99,,,0.00,Acu-Link.com,2013-03-26 05:58:00,
2013-03-26 01:14:00,40.5,28.5,30.20,North,0,4.7,-999.0,62,-99.99,,,0.00,Acu-Link.com,2013-03-26 06:14:00,
2013-03-26 01:29:00,41.2,25.8,30.20,NW,315,4.7,-999.0,54,-99.99,,,0.00,Acu-Link.com,2013-03-26 06:29:00,
2013-03-26 01:44:00,41.0,26.1,30.20,WNW,292,3.8,-999.0,55,-99.99,,,0.00,Acu-Link.com,2013-03-26 06:44:00,
2013-03-26 02:00:00,40.5,26.0,30.20,NNW,337,5.1,-999.0,56,-99.99,,,0.00,Acu-Link.com,2013-03-26 07:00:00,
2013-03-26 02:15:00,40.5,26.4,30.20,WNW,292,5.1,-999.0,57,-99.99,,,0.00,Acu-Link.com,2013-03-26 07:15:00,
2013-03-26 02:30:00,40.6,26.2,30.21,NNW,337,9.4,-999.0,56,-99.99,,,0.00,Acu-Link.com,2013-03-26 07:30:00,
2013-03-26 02:45:00,40.1,26.1,30.21,NW,315,8.3,-999.0,57,-99.99,,,0.00,Acu-Link.com,2013-03-26 07:45:00,
2013-03-26 03:01:00,39.2,26.9,30.22,North,0,6.3,-999.0,61,-99.99,,,0.00,Acu-Link.com,2013-03-26 08:01:00,
2013-03-26 03:16:00,38.7,26.4,30.22,NNW,337,3.8,-999.0,61,-99.99,,,0.00,Acu-Link.com,2013-03-26 08:16:00,
2013-03-26 03:31:00,37.9,26.5,30.23,North,0,5.8,-999.0,63,-99.99,,,0.00,Acu-Link.com,2013-03-26 08:31:00,
2013-03-26 03:46:00,37.4,26.7,30.23,NNE,22,6.3,-999.0,65,-99.99,,,0.00,Acu-Link.com,2013-03-26 08:46:00,
2013-03-26 04:01:00,36.3,26.4,30.24,NNE,22,4.3,-999.0,67,-99.99,,,0.00,Acu-Link.com,2013-03-26 09:01:00,
2013-03-26 04:16:00,35.6,26.5,30.24,NE,45,2.7,-999.0,69,-99.99,,,0.00,Acu-Link.com,2013-03-26 09:16:00,
2013-03-26 04:32:00,35.1,26.3,30.24,North,0,2.7,-999.0,70,-99.99,,,0.00,Acu-Link.com,2013-03-26 09:32:00,
2013-03-26 04:47:00,34.7,26.3,30.24,NNE,22,1.6,-999.0,71,-99.99,,,0.00,Acu-Link.com,2013-03-26 09:47:00,
2013-03-26 05:02:00,33.8,27.1,30.24,NNW,337,0.0,-999.0,76,-99.99,,,0.00,Acu-Link.com,2013-03-26 10:02:00,
2013-03-26 05:18:00,33.3,26.2,30.24,East,90,1.6,-999.0,75,-99.99,,,0.00,Acu-Link.com,2013-03-26 10:18:00,
2013-03-26 05:33:00,32.2,27.6,30.24,WNW,292,1.1,-999.0,83,-99.99,,,0.00,Acu-Link.com,2013-03-26 10:33:00,
2013-03-26 05:48:00,32.0,28.0,30.24,NNE,22,0.0,-999.0,85,-99.99,,,0.00,Acu-Link.com,2013-03-26 10:48:00,
2013-03-26 06:03:00,31.6,27.7,30.24,NNW,337,2.7,-999.0,85,-99.99,,,0.00,Acu-Link.com,2013-03-26 11:03:00,
2013-03-26 06:19:00,31.3,27.3,30.25,NNW,337,2.7,-999.0,85,-99.99,,,0.00,Acu-Link.com,2013-03-26 11:19:00,
2013-03-26 06:34:00,31.1,28.0,30.25,NW,315,2.2,-999.0,88,-99.99,,,0.00,Acu-Link.com,2013-03-26 11:34:00,
2013-03-26 06:49:00,31.3,27.9,30.26,WNW,292,1.6,-999.0,87,-99.99,,,0.00,Acu-Link.com,2013-03-26 11:49:00,
2013-03-26 07:04:00,31.5,27.8,30.27,NW,315,1.6,-999.0,86,-99.99,,,0.00,Acu-Link.com,2013-03-26 12:04:00,
2013-03-26 07:20:00,31.3,28.1,30.26,North,0,2.7,-999.0,88,-99.99,,,0.00,Acu-Link.com,2013-03-26 12:20:00,
2013-03-26 07:35:00,31.5,28.0,30.27,NNW,337,2.2,-999.0,87,-99.99,,,0.00,Acu-Link.com,2013-03-26 12:35:00,
2013-03-26 07:50:00,32.5,29.1,30.28,NNW,337,1.6,-999.0,87,-99.99,,,0.00,Acu-Link.com,2013-03-26 12:50:00,
2013-03-26 08:05:00,34.3,28.8,30.29,NW,315,3.1,-999.0,80,-99.99,,,0.00,Acu-Link.com,2013-03-26 13:05:00,
2013-03-26 08:21:00,35.8,29.3,30.29,NW,315,2.2,-999.0,77,-99.99,,,0.00,Acu-Link.com,2013-03-26 13:21:00,
2013-03-26 08:36:00,38.5,30.3,30.31,NNW,337,2.2,-999.0,72,-99.99,,,0.00,Acu-Link.com,2013-03-26 13:36:00,
2013-03-26 08:51:00,42.1,28.4,30.31,NW,315,2.7,-999.0,58,-99.99,,,0.00,Acu-Link.com,2013-03-26 13:51:00,
2013-03-26 09:07:00,43.7,27.7,30.31,NW,315,6.3,-999.0,53,-99.99,,,0.00,Acu-Link.com,2013-03-26 14:07:00,
2013-03-26 09:22:00,43.9,26.5,30.32,NNW,337,7.8,-999.0,50,-99.99,,,0.00,Acu-Link.com,2013-03-26 14:22:00,
2013-03-26 09:37:00,43.9,24.5,30.31,NNW,337,6.7,-999.0,46,-99.99,,,0.00,Acu-Link.com,2013-03-26 14:37:00,
2013-03-26 09:53:00,44.6,24.1,30.32,NW,315,13.4,-999.0,44,-99.99,,,0.00,Acu-Link.com,2013-03-26 14:53:00,
2013-03-26 10:08:00,46.4,25.1,30.32,NE,45,12.5,-999.0,43,-99.99,,,0.00,Acu-Link.com,2013-03-26 15:08:00,
2013-03-26 10:23:00,47.3,25.4,30.32,North,0,7.4,-999.0,42,-99.99,,,0.00,Acu-Link.com,2013-03-26 15:23:00,
2013-03-26 10:38:00,47.1,24.1,30.31,NNW,337,11.0,-999.0,40,-99.99,,,0.00,Acu-Link.com,2013-03-26 15:38:00,
2013-03-26 10:54:00,48.9,25.7,30.32,North,0,9.8,-999.0,40,-99.99,,,0.00,Acu-Link.com,2013-03-26 15:54:00,
2013-03-26 11:09:00,48.7,24.3,30.31,NNE,22,12.5,-999.0,38,-99.99,,,0.00,Acu-Link.com,2013-03-26 16:09:00,
2013-03-26 11:24:00,48.4,23.3,30.31,NNE,22,3.1,-999.0,37,-99.99,,,0.00,Acu-Link.com,2013-03-26 16:24:00,
2013-03-26 11:40:00,49.8,23.3,30.31,NW,315,5.1,-999.0,35,-99.99,,,0.00,Acu-Link.com,2013-03-26 16:40:00,
2013-03-26 11:55:00,51.4,25.4,30.30,West,270,14.5,-999.0,36,-99.99,,,0.00,Acu-Link.com,2013-03-26 16:55:00,
2013-03-26 12:10:00,51.3,23.9,30.30,NNW,337,13.0,-999.0,34,-99.99,,,0.00,Acu-Link.com,2013-03-26 17:10:00,
2013-03-26 12:26:00,52.3,23.4,30.29,NNW,337,10.3,-999.0,32,-99.99,,,0.00,Acu-Link.com,2013-03-26 17:26:00,
2013-03-26 12:41:00,52.5,24.3,30.28,NNW,337,8.9,-999.0,33,-99.99,,,0.00,Acu-Link.com,2013-03-26 17:41:00,
2013-03-26 12:56:00,53.8,25.4,30.28,NNW,337,9.8,-999.0,33,-99.99,,,0.00,Acu-Link.com,2013-03-26 17:56:00,
2013-03-26 13:11:00,54.3,27.3,30.28,North,0,9.8,-999.0,35,-99.99,,,0.00,Acu-Link.com,2013-03-26 18:11:00,
2013-03-26 13:27:00,54.7,25.4,30.27,NW,315,9.8,-999.0,32,-99.99,,,0.00,Acu-Link.com,2013-03-26 18:27:00,
2013-03-26 13:42:00,55.0,25.0,30.26,NNW,337,11.4,-999.0,31,-99.99,,,0.00,Acu-Link.com,2013-03-26 18:42:00,
2013-03-26 13:57:00,55.6,23.8,30.26,NNW,337,12.5,-999.0,29,-99.99,,,0.00,Acu-Link.com,2013-03-26 18:57:00,
2013-03-26 14:13:00,55.0,24.2,30.25,West,270,7.4,-999.0,30,-99.99,,,0.00,Acu-Link.com,2013-03-26 19:13:00,
2013-03-26 14:28:00,56.7,27.1,30.24,NNW,337,11.4,-999.0,32,-99.99,,,0.00,Acu-Link.com,2013-03-26 19:28:00,
2013-03-26 14:43:00,56.5,27.0,30.24,West,270,3.1,-999.0,32,-99.99,,,0.00,Acu-Link.com,2013-03-26 19:43:00,
2013-03-26 14:58:00,56.7,25.6,30.22,WNW,292,7.4,-999.0,30,-99.99,,,0.00,Acu-Link.com,2013-03-26 19:58:00,
2013-03-26 15:14:00,57.2,24.4,30.21,North,0,11.4,-999.0,28,-99.99,,,0.00,Acu-Link.com,2013-03-26 20:14:00,
2013-03-26 15:29:00,58.1,26.0,30.21,NW,315,9.4,-999.0,29,-99.99,,,0.00,Acu-Link.com,2013-03-26 20:29:00,
2013-03-26 15:44:00,57.7,26.5,30.20,WNW,292,8.9,-999.0,30,-99.99,,,0.00,Acu-Link.com,2013-03-26 20:44:00,
2013-03-26 15:59:00,58.3,25.3,30.21,NNW,337,9.8,-999.0,28,-99.99,,,0.00,Acu-Link.com,2013-03-26 20:59:00,
2013-03-26 16:15:00,58.5,26.3,30.19,WNW,292,11.0,-999.0,29,-99.99,,,0.00,Acu-Link.com,2013-03-26 21:15:00,
2013-03-26 16:30:00,58.6,26.5,30.19,WNW,292,6.7,-999.0,29,-99.99,,,0.00,Acu-Link.com,2013-03-26 21:30:00,
2013-03-26 16:45:00,58.5,27.1,30.19,NE,45,12.5,-999.0,30,-99.99,,,0.00,Acu-Link.com,2013-03-26 21:45:00,
2013-03-26 17:01:00,58.1,26.0,30.18,North,0,5.1,-999.0,29,-99.99,,,0.00,Acu-Link.com,2013-03-26 22:01:00,
2013-03-26 17:16:00,58.6,27.3,30.18,NNW,337,11.9,-999.0,30,-99.99,,,0.00,Acu-Link.com,2013-03-26 22:16:00,
2013-03-26 17:31:00,58.1,26.0,30.18,WNW,292,12.5,-999.0,29,-99.99,,,0.00,Acu-Link.com,2013-03-26 22:31:00,
2013-03-26 17:47:00,58.3,27.0,30.18,NNW,337,9.4,-999.0,30,-99.99,,,0.00,Acu-Link.com,2013-03-26 22:47:00,
2013-03-26 18:02:00,59.2,27.0,30.18,North,0,8.9,-999.0,29,-99.99,,,0.00,Acu-Link.com,2013-03-26 23:02:00,
2013-03-26 18:17:00,58.5,26.3,30.18,NNE,22,9.4,-999.0,29,-99.99,,,0.00,Acu-Link.com,2013-03-26 23:17:00,
2013-03-26 18:32:00,57.6,26.4,30.18,NW,315,6.3,-999.0,30,-99.99,,,0.00,Acu-Link.com,2013-03-26 23:32:00,
2013-03-26 18:47:00,57.7,29.6,30.19,North,0,4.3,-999.0,34,-99.99,,,0.00,Acu-Link.com,2013-03-26 23:47:00,
2013-03-26 19:03:00,55.8,27.8,30.19,NNE,22,4.3,-999.0,34,-99.99,,,0.00,Acu-Link.com,2013-03-27 00:03:00,
2013-03-26 19:18:00,53.6,26.6,30.19,North,0,4.7,-999.0,35,-99.99,,,0.00,Acu-Link.com,2013-03-27 00:18:00,
2013-03-26 19:33:00,51.4,27.3,30.19,ENE,67,2.7,-999.0,39,-99.99,,,0.00,Acu-Link.com,2013-03-27 00:33:00,
2013-03-26 19:49:00,49.8,30.4,30.20,North,0,2.2,-999.0,47,-99.99,,,0.00,Acu-Link.com,2013-03-27 00:49:00,
2013-03-26 20:04:00,48.0,29.8,30.20,NNE,22,2.2,-999.0,49,-99.99,,,0.00,Acu-Link.com,2013-03-27 01:04:00,
2013-03-26 20:19:00,46.8,29.6,30.21,NE,45,2.2,-999.0,51,-99.99,,,0.00,Acu-Link.com,2013-03-27 01:19:00,
2013-03-26 20:34:00,46.4,30.2,30.20,NE,45,2.2,-999.0,53,-99.99,,,0.00,Acu-Link.com,2013-03-27 01:34:00,
2013-03-26 20:50:00,45.9,30.6,30.21,ENE,67,2.7,-999.0,55,-99.99,,,0.00,Acu-Link.com,2013-03-27 01:50:00,
2013-03-26 21:05:00,44.8,32.6,30.22,NW,315,0.0,-999.0,62,-99.99,,,0.00,Acu-Link.com,2013-03-27 02:05:00,
2013-03-26 21:20:00,42.8,35.4,30.22,WNW,292,0.0,-999.0,75,-99.99,,,0.00,Acu-Link.com,2013-03-27 02:20:00,
2013-03-26 21:35:00,42.1,33.0,30.22,WNW,292,0.0,-999.0,70,-99.99,,,0.00,Acu-Link.com,2013-03-27 02:35:00,
2013-03-26 22:06:00,40.1,33.8,30.23,SSE,157,0.0,-999.0,78,-99.99,,,0.00,Acu-Link.com,2013-03-27 03:06:00,
2013-03-26 22:21:00,38.7,32.4,30.23,SSW,202,0.0,-999.0,78,-99.99,,,0.00,Acu-Link.com,2013-03-27 03:21:00,
2013-03-26 22:36:00,37.8,34.0,30.23,West,270,0.0,-999.0,86,-99.99,,,0.00,Acu-Link.com,2013-03-27 03:36:00,
2013-03-26 22:52:00,37.4,35.3,30.23,North,0,0.0,-999.0,92,-99.99,,,0.00,Acu-Link.com,2013-03-27 03:52:00,
2013-03-26 23:07:00,36.5,33.3,30.24,SSW,202,0.0,-999.0,88,-99.99,,,0.00,Acu-Link.com,2013-03-27 04:07:00,
2013-03-26 23:22:00,35.8,32.9,30.23,NNW,337,0.0,-999.0,89,-99.99,,,0.00,Acu-Link.com,2013-03-27 04:22:00,
2013-03-26 23:38:00,35.4,31.7,30.23,SSW,202,0.0,-999.0,86,-99.99,,,0.00,Acu-Link.com,2013-03-27 04:38:00,
2013-03-26 23:53:00,35.1,32.7,30.23,SSE,157,0.0,-999.0,91,-99.99,,,0.00,Acu-Link.com,2013-03-27 04:53:00,